sensor_id;sensor_type;location;lat;lon;timestamp;P1;durP1;ratioP1;P2;durP2;ratioP2
1467;SDS011;727;48.892;9.544;2023-01-19T00:00:02;24.30;;;15.27;;
1467;SDS011;727;48.892;9.544;2023-01-19T00:02:30;17.02;;;13.40;;
1467;SDS011;727;48.892;9.544;2023-01-19T00:04:59;18.48;;;12.80;;
1467;SDS011;727;48.892;9.544;2023-01-19T00:07:29;21.67;;;13.77;;
1467;SDS011;727;48.892;9.544;2023-01-19T00:09:57;16.90;;;14.20;;
1467;SDS011;727;48.892;9.544;2023-01-19T00:12:23;18.13;;;14.35;;
1467;SDS011;727;48.892;9.544;2023-01-19T00:14:51;16.13;;;13.23;;
1467;SDS011;727;48.892;9.544;2023-01-19T00:17:17;22.25;;;14.52;;
1467;SDS011;727;48.892;9.544;2023-01-19T00:19:44;16.95;;;13.60;;
1467;SDS011;727;48.892;9.544;2023-01-19T00:22:11;15.50;;;13.35;;
1467;SDS011;727;48.892;9.544;2023-01-19T00:24:39;14.35;;;12.93;;
1467;SDS011;727;48.892;9.544;2023-01-19T00:27:06;13.77;;;12.27;;
1467;SDS011;727;48.892;9.544;2023-01-19T00:29:32;18.25;;;14.27;;
1467;SDS011;727;48.892;9.544;2023-01-19T00:31:59;22.42;;;15.65;;
1467;SDS011;727;48.892;9.544;2023-01-19T00:34:27;21.23;;;15.20;;
1467;SDS011;727;48.892;9.544;2023-01-19T00:37:00;23.90;;;14.68;;
1467;SDS011;727;48.892;9.544;2023-01-19T00:39:27;24.17;;;15.90;;
1467;SDS011;727;48.892;9.544;2023-01-19T00:41:55;22.92;;;15.40;;
1467;SDS011;727;48.892;9.544;2023-01-19T00:44:40;19.83;;;14.13;;
1467;SDS011;727;48.892;9.544;2023-01-19T00:47:06;21.10;;;14.50;;
1467;SDS011;727;48.892;9.544;2023-01-19T00:49:33;21.40;;;13.23;;
1467;SDS011;727;48.892;9.544;2023-01-19T00:52:00;22.73;;;14.75;;
1467;SDS011;727;48.892;9.544;2023-01-19T00:54:27;21.55;;;14.65;;
1467;SDS011;727;48.892;9.544;2023-01-19T00:56:53;22.33;;;15.60;;
1467;SDS011;727;48.892;9.544;2023-01-19T00:59:22;20.90;;;15.00;;
1467;SDS011;727;48.892;9.544;2023-01-19T01:01:49;21.95;;;16.27;;
1467;SDS011;727;48.892;9.544;2023-01-19T01:04:16;18.08;;;15.00;;
1467;SDS011;727;48.892;9.544;2023-01-19T01:06:43;22.63;;;14.13;;
1467;SDS011;727;48.892;9.544;2023-01-19T01:09:09;21.60;;;15.20;;
1467;SDS011;727;48.892;9.544;2023-01-19T01:11:36;19.80;;;15.23;;
1467;SDS011;727;48.892;9.544;2023-01-19T01:14:05;21.17;;;15.00;;
1467;SDS011;727;48.892;9.544;2023-01-19T01:16:32;18.92;;;13.60;;
1467;SDS011;727;48.892;9.544;2023-01-19T01:18:59;20.00;;;14.48;;
1467;SDS011;727;48.892;9.544;2023-01-19T01:21:26;21.73;;;14.25;;
1467;SDS011;727;48.892;9.544;2023-01-19T01:23:52;21.88;;;14.15;;
1467;SDS011;727;48.892;9.544;2023-01-19T01:26:19;17.00;;;12.23;;
1467;SDS011;727;48.892;9.544;2023-01-19T01:28:46;17.35;;;13.07;;
1467;SDS011;727;48.892;9.544;2023-01-19T01:31:14;22.30;;;13.82;;
1467;SDS011;727;48.892;9.544;2023-01-19T01:33:41;19.02;;;14.13;;
1467;SDS011;727;48.892;9.544;2023-01-19T01:36:08;19.10;;;14.48;;
1467;SDS011;727;48.892;9.544;2023-01-19T01:38:35;19.63;;;13.88;;
1467;SDS011;727;48.892;9.544;2023-01-19T01:41:02;16.08;;;13.45;;
1467;SDS011;727;48.892;9.544;2023-01-19T01:43:40;14.57;;;11.90;;
1467;SDS011;727;48.892;9.544;2023-01-19T01:46:09;18.30;;;12.85;;
1467;SDS011;727;48.892;9.544;2023-01-19T01:48:37;18.27;;;12.60;;
1467;SDS011;727;48.892;9.544;2023-01-19T01:51:07;18.25;;;13.63;;
1467;SDS011;727;48.892;9.544;2023-01-19T01:53:55;14.32;;;10.95;;
1467;SDS011;727;48.892;9.544;2023-01-19T01:56:30;15.43;;;13.25;;
1467;SDS011;727;48.892;9.544;2023-01-19T01:59:01;18.65;;;12.90;;
1467;SDS011;727;48.892;9.544;2023-01-19T02:01:31;16.15;;;12.27;;
1467;SDS011;727;48.892;9.544;2023-01-19T02:04:17;22.90;;;12.38;;
1467;SDS011;727;48.892;9.544;2023-01-19T02:06:44;16.27;;;12.32;;
1467;SDS011;727;48.892;9.544;2023-01-19T02:09:30;18.33;;;11.73;;
1467;SDS011;727;48.892;9.544;2023-01-19T02:12:18;15.48;;;12.23;;
1467;SDS011;727;48.892;9.544;2023-01-19T02:15:02;20.00;;;13.38;;
1467;SDS011;727;48.892;9.544;2023-01-19T02:17:29;16.50;;;11.85;;
1467;SDS011;727;48.892;9.544;2023-01-19T02:19:57;16.27;;;13.93;;
1467;SDS011;727;48.892;9.544;2023-01-19T02:22:25;19.88;;;13.13;;
1467;SDS011;727;48.892;9.544;2023-01-19T02:25:01;18.65;;;14.30;;
1467;SDS011;727;48.892;9.544;2023-01-19T02:27:28;15.18;;;10.55;;
1467;SDS011;727;48.892;9.544;2023-01-19T02:29:55;17.40;;;12.88;;
1467;SDS011;727;48.892;9.544;2023-01-19T02:32:22;18.75;;;12.40;;
1467;SDS011;727;48.892;9.544;2023-01-19T02:34:49;14.32;;;11.07;;
1467;SDS011;727;48.892;9.544;2023-01-19T02:37:16;18.85;;;13.23;;
1467;SDS011;727;48.892;9.544;2023-01-19T02:39:44;15.10;;;11.05;;
1467;SDS011;727;48.892;9.544;2023-01-19T02:42:17;16.10;;;12.90;;
1467;SDS011;727;48.892;9.544;2023-01-19T02:44:48;15.48;;;11.90;;
1467;SDS011;727;48.892;9.544;2023-01-19T02:47:17;16.27;;;12.25;;
1467;SDS011;727;48.892;9.544;2023-01-19T02:49:52;14.95;;;11.77;;
1467;SDS011;727;48.892;9.544;2023-01-19T02:52:19;21.20;;;12.27;;
1467;SDS011;727;48.892;9.544;2023-01-19T02:54:49;17.02;;;12.55;;
1467;SDS011;727;48.892;9.544;2023-01-19T02:57:40;16.35;;;13.23;;
1467;SDS011;727;48.892;9.544;2023-01-19T03:00:24;17.88;;;12.25;;
1467;SDS011;727;48.892;9.544;2023-01-19T03:03:04;19.45;;;13.32;;
1467;SDS011;727;48.892;9.544;2023-01-19T03:05:48;16.27;;;12.45;;
1467;SDS011;727;48.892;9.544;2023-01-19T03:08:25;17.08;;;12.70;;
1467;SDS011;727;48.892;9.544;2023-01-19T03:10:59;15.02;;;12.82;;
1467;SDS011;727;48.892;9.544;2023-01-19T03:13:31;14.80;;;12.20;;
1467;SDS011;727;48.892;9.544;2023-01-19T03:16:04;15.77;;;11.65;;
1467;SDS011;727;48.892;9.544;2023-01-19T03:18:37;21.90;;;12.85;;
1467;SDS011;727;48.892;9.544;2023-01-19T03:21:07;15.80;;;12.13;;
1467;SDS011;727;48.892;9.544;2023-01-19T03:23:36;13.93;;;11.35;;
1467;SDS011;727;48.892;9.544;2023-01-19T03:26:06;16.05;;;11.65;;
1467;SDS011;727;48.892;9.544;2023-01-19T03:28:37;16.02;;;11.02;;
1467;SDS011;727;48.892;9.544;2023-01-19T03:31:08;17.98;;;13.50;;
1467;SDS011;727;48.892;9.544;2023-01-19T03:33:37;16.40;;;13.45;;
1467;SDS011;727;48.892;9.544;2023-01-19T03:36:09;18.45;;;12.60;;
1467;SDS011;727;48.892;9.544;2023-01-19T03:38:40;17.05;;;12.50;;
1467;SDS011;727;48.892;9.544;2023-01-19T03:41:10;19.25;;;13.40;;
1467;SDS011;727;48.892;9.544;2023-01-19T03:43:40;16.65;;;12.38;;
1467;SDS011;727;48.892;9.544;2023-01-19T03:46:08;15.00;;;12.88;;
1467;SDS011;727;48.892;9.544;2023-01-19T03:48:37;17.08;;;12.40;;
1467;SDS011;727;48.892;9.544;2023-01-19T03:51:04;16.80;;;12.98;;
1467;SDS011;727;48.892;9.544;2023-01-19T03:53:33;18.00;;;12.25;;
1467;SDS011;727;48.892;9.544;2023-01-19T03:55:59;16.67;;;11.95;;
1467;SDS011;727;48.892;9.544;2023-01-19T03:58:26;17.08;;;12.15;;
1467;SDS011;727;48.892;9.544;2023-01-19T04:00:54;21.63;;;12.43;;
1467;SDS011;727;48.892;9.544;2023-01-19T04:03:21;13.88;;;12.38;;
1467;SDS011;727;48.892;9.544;2023-01-19T04:05:48;13.32;;;11.20;;
1467;SDS011;727;48.892;9.544;2023-01-19T04:08:15;15.85;;;12.27;;
1467;SDS011;727;48.892;9.544;2023-01-19T04:10:41;17.83;;;12.32;;
1467;SDS011;727;48.892;9.544;2023-01-19T04:13:08;15.98;;;11.32;;
1467;SDS011;727;48.892;9.544;2023-01-19T04:15:35;15.65;;;12.65;;
1467;SDS011;727;48.892;9.544;2023-01-19T04:18:03;20.50;;;14.18;;
1467;SDS011;727;48.892;9.544;2023-01-19T04:20:30;21.58;;;14.00;;
1467;SDS011;727;48.892;9.544;2023-01-19T04:22:58;16.52;;;13.25;;
1467;SDS011;727;48.892;9.544;2023-01-19T04:25:25;19.83;;;14.85;;
1467;SDS011;727;48.892;9.544;2023-01-19T04:27:52;22.15;;;14.95;;
1467;SDS011;727;48.892;9.544;2023-01-19T04:30:21;22.80;;;15.60;;
1467;SDS011;727;48.892;9.544;2023-01-19T04:32:48;20.58;;;14.77;;
1467;SDS011;727;48.892;9.544;2023-01-19T04:35:17;19.05;;;14.55;;
1467;SDS011;727;48.892;9.544;2023-01-19T04:37:46;21.65;;;14.55;;
1467;SDS011;727;48.892;9.544;2023-01-19T04:40:12;18.75;;;12.20;;
1467;SDS011;727;48.892;9.544;2023-01-19T04:42:41;17.77;;;13.88;;
1467;SDS011;727;48.892;9.544;2023-01-19T04:45:09;16.92;;;13.40;;
1467;SDS011;727;48.892;9.544;2023-01-19T04:47:37;19.17;;;14.00;;
1467;SDS011;727;48.892;9.544;2023-01-19T04:50:04;14.82;;;11.20;;
1467;SDS011;727;48.892;9.544;2023-01-19T04:52:33;18.50;;;14.73;;
1467;SDS011;727;48.892;9.544;2023-01-19T04:55:01;16.92;;;13.45;;
1467;SDS011;727;48.892;9.544;2023-01-19T04:57:29;18.65;;;13.25;;
1467;SDS011;727;48.892;9.544;2023-01-19T04:59:57;19.42;;;13.68;;
1467;SDS011;727;48.892;9.544;2023-01-19T05:02:24;18.80;;;14.55;;
1467;SDS011;727;48.892;9.544;2023-01-19T05:04:50;19.70;;;13.68;;
1467;SDS011;727;48.892;9.544;2023-01-19T05:07:17;22.80;;;15.10;;
1467;SDS011;727;48.892;9.544;2023-01-19T05:09:45;23.27;;;16.70;;
1467;SDS011;727;48.892;9.544;2023-01-19T05:12:12;26.45;;;15.70;;
1467;SDS011;727;48.892;9.544;2023-01-19T05:14:39;20.95;;;13.90;;
1467;SDS011;727;48.892;9.544;2023-01-19T05:17:06;17.33;;;12.68;;
1467;SDS011;727;48.892;9.544;2023-01-19T05:19:32;18.23;;;13.68;;
1467;SDS011;727;48.892;9.544;2023-01-19T05:22:00;19.67;;;13.73;;
1467;SDS011;727;48.892;9.544;2023-01-19T05:24:27;19.17;;;15.45;;
1467;SDS011;727;48.892;9.544;2023-01-19T05:26:55;16.70;;;13.98;;
1467;SDS011;727;48.892;9.544;2023-01-19T05:29:22;16.33;;;12.55;;
1467;SDS011;727;48.892;9.544;2023-01-19T05:31:49;19.98;;;15.05;;
1467;SDS011;727;48.892;9.544;2023-01-19T05:34:16;17.13;;;13.55;;
1467;SDS011;727;48.892;9.544;2023-01-19T05:36:43;17.92;;;11.90;;
1467;SDS011;727;48.892;9.544;2023-01-19T05:39:09;12.00;;;10.23;;
1467;SDS011;727;48.892;9.544;2023-01-19T05:41:36;15.38;;;11.75;;
1467;SDS011;727;48.892;9.544;2023-01-19T05:44:04;14.63;;;11.18;;
1467;SDS011;727;48.892;9.544;2023-01-19T05:46:31;15.85;;;12.25;;
1467;SDS011;727;48.892;9.544;2023-01-19T05:48:59;16.02;;;11.57;;
1467;SDS011;727;48.892;9.544;2023-01-19T05:51:28;13.27;;;11.05;;
1467;SDS011;727;48.892;9.544;2023-01-19T05:53:59;12.85;;;11.40;;
1467;SDS011;727;48.892;9.544;2023-01-19T05:56:26;15.85;;;10.88;;
1467;SDS011;727;48.892;9.544;2023-01-19T05:58:53;14.48;;;12.00;;
1467;SDS011;727;48.892;9.544;2023-01-19T06:01:21;17.65;;;12.65;;
1467;SDS011;727;48.892;9.544;2023-01-19T06:03:48;15.80;;;12.50;;
1467;SDS011;727;48.892;9.544;2023-01-19T06:06:15;20.83;;;15.02;;
1467;SDS011;727;48.892;9.544;2023-01-19T06:08:41;20.13;;;14.35;;
1467;SDS011;727;48.892;9.544;2023-01-19T06:11:08;18.35;;;14.95;;
1467;SDS011;727;48.892;9.544;2023-01-19T06:13:35;21.63;;;15.80;;
1467;SDS011;727;48.892;9.544;2023-01-19T06:16:03;21.27;;;16.95;;
1467;SDS011;727;48.892;9.544;2023-01-19T06:18:32;19.42;;;16.83;;
1467;SDS011;727;48.892;9.544;2023-01-19T06:21:01;25.30;;;21.13;;
1467;SDS011;727;48.892;9.544;2023-01-19T06:23:29;24.08;;;21.58;;
1467;SDS011;727;48.892;9.544;2023-01-19T06:25:57;23.50;;;20.08;;
1467;SDS011;727;48.892;9.544;2023-01-19T06:28:24;24.58;;;17.85;;
1467;SDS011;727;48.892;9.544;2023-01-19T06:30:51;25.17;;;17.27;;
1467;SDS011;727;48.892;9.544;2023-01-19T06:33:18;21.48;;;15.15;;
1467;SDS011;727;48.892;9.544;2023-01-19T06:35:47;17.75;;;15.18;;
1467;SDS011;727;48.892;9.544;2023-01-19T06:38:14;16.17;;;12.27;;
1467;SDS011;727;48.892;9.544;2023-01-19T06:40:42;18.40;;;13.48;;
1467;SDS011;727;48.892;9.544;2023-01-19T06:43:09;17.35;;;12.63;;
1467;SDS011;727;48.892;9.544;2023-01-19T06:45:36;15.68;;;11.10;;
1467;SDS011;727;48.892;9.544;2023-01-19T06:48:03;17.77;;;11.93;;
1467;SDS011;727;48.892;9.544;2023-01-19T06:50:30;14.25;;;11.85;;
1467;SDS011;727;48.892;9.544;2023-01-19T06:52:58;20.10;;;13.73;;
1467;SDS011;727;48.892;9.544;2023-01-19T06:55:25;21.20;;;13.80;;
1467;SDS011;727;48.892;9.544;2023-01-19T06:57:54;18.45;;;12.48;;
1467;SDS011;727;48.892;9.544;2023-01-19T07:00:21;19.98;;;13.70;;
1467;SDS011;727;48.892;9.544;2023-01-19T07:02:51;21.77;;;16.10;;
1467;SDS011;727;48.892;9.544;2023-01-19T07:05:18;22.15;;;15.38;;
1467;SDS011;727;48.892;9.544;2023-01-19T07:07:49;18.50;;;14.23;;
1467;SDS011;727;48.892;9.544;2023-01-19T07:10:18;21.80;;;12.30;;
1467;SDS011;727;48.892;9.544;2023-01-19T07:12:45;15.15;;;12.73;;
1467;SDS011;727;48.892;9.544;2023-01-19T07:15:12;21.73;;;13.40;;
1467;SDS011;727;48.892;9.544;2023-01-19T07:17:39;20.80;;;13.88;;
1467;SDS011;727;48.892;9.544;2023-01-19T07:20:07;17.80;;;13.85;;
1467;SDS011;727;48.892;9.544;2023-01-19T07:22:35;17.88;;;14.85;;
1467;SDS011;727;48.892;9.544;2023-01-19T07:25:01;18.73;;;14.13;;
1467;SDS011;727;48.892;9.544;2023-01-19T07:27:30;24.90;;;13.60;;
1467;SDS011;727;48.892;9.544;2023-01-19T07:29:56;17.52;;;12.65;;
1467;SDS011;727;48.892;9.544;2023-01-19T07:32:25;18.13;;;13.95;;
1467;SDS011;727;48.892;9.544;2023-01-19T07:34:51;23.58;;;16.95;;
1467;SDS011;727;48.892;9.544;2023-01-19T07:37:18;21.10;;;16.48;;
1467;SDS011;727;48.892;9.544;2023-01-19T07:39:45;26.38;;;20.30;;
1467;SDS011;727;48.892;9.544;2023-01-19T07:42:12;23.55;;;19.02;;
1467;SDS011;727;48.892;9.544;2023-01-19T07:44:40;23.80;;;17.83;;
1467;SDS011;727;48.892;9.544;2023-01-19T07:47:07;22.25;;;17.25;;
1467;SDS011;727;48.892;9.544;2023-01-19T07:49:36;21.55;;;16.27;;
1467;SDS011;727;48.892;9.544;2023-01-19T07:52:03;24.25;;;16.63;;
1467;SDS011;727;48.892;9.544;2023-01-19T07:54:30;21.98;;;16.38;;
1467;SDS011;727;48.892;9.544;2023-01-19T07:56:57;20.77;;;16.95;;
1467;SDS011;727;48.892;9.544;2023-01-19T07:59:24;29.90;;;19.45;;
1467;SDS011;727;48.892;9.544;2023-01-19T08:01:52;50.67;;;32.28;;
1467;SDS011;727;48.892;9.544;2023-01-19T08:04:23;46.30;;;31.83;;
1467;SDS011;727;48.892;9.544;2023-01-19T08:06:50;37.67;;;25.30;;
1467;SDS011;727;48.892;9.544;2023-01-19T08:09:16;31.85;;;19.65;;
1467;SDS011;727;48.892;9.544;2023-01-19T08:11:43;23.63;;;17.73;;
1467;SDS011;727;48.892;9.544;2023-01-19T08:14:10;32.10;;;21.50;;
1467;SDS011;727;48.892;9.544;2023-01-19T08:16:37;57.05;;;41.67;;
1467;SDS011;727;48.892;9.544;2023-01-19T08:19:05;40.30;;;28.38;;
1467;SDS011;727;48.892;9.544;2023-01-19T08:21:31;30.58;;;23.02;;
1467;SDS011;727;48.892;9.544;2023-01-19T08:23:59;21.73;;;19.02;;
1467;SDS011;727;48.892;9.544;2023-01-19T08:26:26;25.02;;;19.08;;
1467;SDS011;727;48.892;9.544;2023-01-19T08:28:55;24.40;;;20.73;;
1467;SDS011;727;48.892;9.544;2023-01-19T08:31:23;22.23;;;17.42;;
1467;SDS011;727;48.892;9.544;2023-01-19T08:33:50;15.13;;;13.25;;
1467;SDS011;727;48.892;9.544;2023-01-19T08:36:18;19.13;;;12.80;;
1467;SDS011;727;48.892;9.544;2023-01-19T08:38:46;16.15;;;11.90;;
1467;SDS011;727;48.892;9.544;2023-01-19T08:41:14;11.25;;;10.07;;
1467;SDS011;727;48.892;9.544;2023-01-19T08:43:41;12.27;;;10.95;;
1467;SDS011;727;48.892;9.544;2023-01-19T08:46:08;11.27;;;10.05;;
1467;SDS011;727;48.892;9.544;2023-01-19T08:48:35;14.52;;;13.02;;
1467;SDS011;727;48.892;9.544;2023-01-19T08:51:02;23.98;;;14.23;;
1467;SDS011;727;48.892;9.544;2023-01-19T08:53:30;16.40;;;13.88;;
1467;SDS011;727;48.892;9.544;2023-01-19T08:55:57;19.90;;;12.95;;
1467;SDS011;727;48.892;9.544;2023-01-19T08:58:25;16.70;;;14.00;;
1467;SDS011;727;48.892;9.544;2023-01-19T09:00:52;19.92;;;15.35;;
1467;SDS011;727;48.892;9.544;2023-01-19T09:03:19;18.75;;;13.75;;
1467;SDS011;727;48.892;9.544;2023-01-19T09:05:46;14.88;;;13.27;;
1467;SDS011;727;48.892;9.544;2023-01-19T09:08:13;23.08;;;14.65;;
1467;SDS011;727;48.892;9.544;2023-01-19T09:10:44;17.05;;;15.23;;
1467;SDS011;727;48.892;9.544;2023-01-19T09:13:12;17.13;;;12.75;;
1467;SDS011;727;48.892;9.544;2023-01-19T09:15:40;16.65;;;13.35;;
1467;SDS011;727;48.892;9.544;2023-01-19T09:18:08;16.63;;;13.80;;
1467;SDS011;727;48.892;9.544;2023-01-19T09:20:37;19.02;;;14.25;;
1467;SDS011;727;48.892;9.544;2023-01-19T09:23:06;19.08;;;16.10;;
1467;SDS011;727;48.892;9.544;2023-01-19T09:25:34;20.50;;;17.88;;
1467;SDS011;727;48.892;9.544;2023-01-19T09:28:03;23.08;;;18.80;;
1467;SDS011;727;48.892;9.544;2023-01-19T09:30:30;24.75;;;17.80;;
1467;SDS011;727;48.892;9.544;2023-01-19T09:33:00;24.00;;;18.33;;
1467;SDS011;727;48.892;9.544;2023-01-19T09:35:28;24.00;;;18.25;;
1467;SDS011;727;48.892;9.544;2023-01-19T09:37:55;16.83;;;15.00;;
1467;SDS011;727;48.892;9.544;2023-01-19T09:40:22;21.08;;;16.13;;
1467;SDS011;727;48.892;9.544;2023-01-19T09:42:50;15.05;;;12.68;;
1467;SDS011;727;48.892;9.544;2023-01-19T09:45:25;15.38;;;13.68;;
1467;SDS011;727;48.892;9.544;2023-01-19T09:47:56;16.50;;;13.70;;
1467;SDS011;727;48.892;9.544;2023-01-19T09:50:27;15.60;;;13.88;;
1467;SDS011;727;48.892;9.544;2023-01-19T09:53:02;16.35;;;12.38;;
1467;SDS011;727;48.892;9.544;2023-01-19T09:55:35;20.52;;;16.65;;
1467;SDS011;727;48.892;9.544;2023-01-19T09:58:08;22.38;;;15.15;;
1467;SDS011;727;48.892;9.544;2023-01-19T10:00:42;21.23;;;14.73;;
1467;SDS011;727;48.892;9.544;2023-01-19T10:03:18;18.70;;;14.60;;
1467;SDS011;727;48.892;9.544;2023-01-19T10:05:45;20.25;;;15.23;;
1467;SDS011;727;48.892;9.544;2023-01-19T10:08:18;20.73;;;14.57;;
1467;SDS011;727;48.892;9.544;2023-01-19T10:10:51;14.55;;;12.85;;
1467;SDS011;727;48.892;9.544;2023-01-19T10:13:21;20.63;;;13.00;;
1467;SDS011;727;48.892;9.544;2023-01-19T10:16:01;16.48;;;12.90;;
1467;SDS011;727;48.892;9.544;2023-01-19T10:18:44;15.27;;;12.50;;
1467;SDS011;727;48.892;9.544;2023-01-19T10:21:13;16.48;;;12.95;;
1467;SDS011;727;48.892;9.544;2023-01-19T10:23:45;14.45;;;12.00;;
1467;SDS011;727;48.892;9.544;2023-01-19T10:26:15;16.27;;;12.43;;
1467;SDS011;727;48.892;9.544;2023-01-19T10:28:44;21.85;;;12.48;;
1467;SDS011;727;48.892;9.544;2023-01-19T10:31:14;17.65;;;12.55;;
1467;SDS011;727;48.892;9.544;2023-01-19T10:33:43;13.00;;;10.07;;
1467;SDS011;727;48.892;9.544;2023-01-19T10:36:15;13.30;;;10.70;;
1467;SDS011;727;48.892;9.544;2023-01-19T10:38:43;12.35;;;8.98;;
1467;SDS011;727;48.892;9.544;2023-01-19T10:41:11;13.82;;;8.98;;
1467;SDS011;727;48.892;9.544;2023-01-19T10:43:43;17.85;;;10.77;;
1467;SDS011;727;48.892;9.544;2023-01-19T10:46:16;17.45;;;10.18;;
1467;SDS011;727;48.892;9.544;2023-01-19T10:48:47;11.65;;;9.57;;
1467;SDS011;727;48.892;9.544;2023-01-19T10:51:15;13.07;;;9.88;;
1467;SDS011;727;48.892;9.544;2023-01-19T10:53:42;15.00;;;13.07;;
1467;SDS011;727;48.892;9.544;2023-01-19T10:56:20;12.95;;;9.88;;
1467;SDS011;727;48.892;9.544;2023-01-19T10:58:48;32.05;;;9.82;;
1467;SDS011;727;48.892;9.544;2023-01-19T11:01:17;13.75;;;8.65;;
1467;SDS011;727;48.892;9.544;2023-01-19T11:03:45;10.48;;;8.68;;
1467;SDS011;727;48.892;9.544;2023-01-19T11:06:23;10.45;;;8.35;;
1467;SDS011;727;48.892;9.544;2023-01-19T11:08:52;8.25;;;7.15;;
1467;SDS011;727;48.892;9.544;2023-01-19T11:11:39;14.85;;;8.30;;
1467;SDS011;727;48.892;9.544;2023-01-19T11:14:08;12.18;;;8.32;;
1467;SDS011;727;48.892;9.544;2023-01-19T11:16:39;15.10;;;7.35;;
1467;SDS011;727;48.892;9.544;2023-01-19T11:19:14;11.82;;;8.07;;
1467;SDS011;727;48.892;9.544;2023-01-19T11:21:50;17.27;;;8.57;;
1467;SDS011;727;48.892;9.544;2023-01-19T11:24:17;9.70;;;8.50;;
1467;SDS011;727;48.892;9.544;2023-01-19T11:26:46;13.35;;;7.63;;
1467;SDS011;727;48.892;9.544;2023-01-19T11:29:15;16.33;;;9.93;;
1467;SDS011;727;48.892;9.544;2023-01-19T11:31:46;11.93;;;8.50;;
1467;SDS011;727;48.892;9.544;2023-01-19T11:34:29;24.17;;;10.32;;
1467;SDS011;727;48.892;9.544;2023-01-19T11:36:58;10.95;;;7.40;;
1467;SDS011;727;48.892;9.544;2023-01-19T11:39:27;9.23;;;7.72;;
1467;SDS011;727;48.892;9.544;2023-01-19T11:41:55;13.15;;;7.90;;
1467;SDS011;727;48.892;9.544;2023-01-19T11:44:25;7.40;;;6.25;;
1467;SDS011;727;48.892;9.544;2023-01-19T11:46:57;7.35;;;6.50;;
1467;SDS011;727;48.892;9.544;2023-01-19T11:49:26;10.25;;;5.82;;
1467;SDS011;727;48.892;9.544;2023-01-19T11:52:03;7.85;;;5.60;;
1467;SDS011;727;48.892;9.544;2023-01-19T11:54:34;8.70;;;7.00;;
1467;SDS011;727;48.892;9.544;2023-01-19T11:57:09;13.55;;;6.10;;
1467;SDS011;727;48.892;9.544;2023-01-19T11:59:39;7.28;;;5.55;;
1467;SDS011;727;48.892;9.544;2023-01-19T12:02:17;12.30;;;8.30;;
1467;SDS011;727;48.892;9.544;2023-01-19T12:04:51;10.13;;;6.95;;
1467;SDS011;727;48.892;9.544;2023-01-19T12:07:22;8.32;;;6.45;;
1467;SDS011;727;48.892;9.544;2023-01-19T12:09:55;11.60;;;7.10;;
1467;SDS011;727;48.892;9.544;2023-01-19T12:12:31;28.83;;;11.57;;
1467;SDS011;727;48.892;9.544;2023-01-19T12:15:04;8.25;;;5.75;;
1467;SDS011;727;48.892;9.544;2023-01-19T12:17:36;10.75;;;6.32;;
1467;SDS011;727;48.892;9.544;2023-01-19T12:20:12;9.07;;;5.15;;
1467;SDS011;727;48.892;9.544;2023-01-19T12:22:47;10.05;;;5.82;;
1467;SDS011;727;48.892;9.544;2023-01-19T12:25:19;11.68;;;6.15;;
1467;SDS011;727;48.892;9.544;2023-01-19T12:27:49;7.43;;;5.50;;
1467;SDS011;727;48.892;9.544;2023-01-19T12:30:19;11.02;;;5.35;;
1467;SDS011;727;48.892;9.544;2023-01-19T12:32:49;9.77;;;6.13;;
1467;SDS011;727;48.892;9.544;2023-01-19T12:38:40;7.95;;;6.50;;
1467;SDS011;727;48.892;9.544;2023-01-19T12:41:20;12.45;;;5.57;;
1467;SDS011;727;48.892;9.544;2023-01-19T12:46:47;7.70;;;5.80;;
1467;SDS011;727;48.892;9.544;2023-01-19T12:49:20;6.72;;;5.10;;
1467;SDS011;727;48.892;9.544;2023-01-19T12:52:09;27.50;;;7.07;;
1467;SDS011;727;48.892;9.544;2023-01-19T12:54:42;12.43;;;7.07;;
1467;SDS011;727;48.892;9.544;2023-01-19T12:57:19;7.18;;;6.50;;
1467;SDS011;727;48.892;9.544;2023-01-19T12:59:55;10.02;;;5.82;;
1467;SDS011;727;48.892;9.544;2023-01-19T13:05:14;6.30;;;5.40;;
1467;SDS011;727;48.892;9.544;2023-01-19T13:11:11;7.85;;;5.40;;
1467;SDS011;727;48.892;9.544;2023-01-19T13:13:42;6.85;;;4.97;;
1467;SDS011;727;48.892;9.544;2023-01-19T13:19:17;7.97;;;6.47;;
1467;SDS011;727;48.892;9.544;2023-01-19T13:21:55;6.07;;;5.47;;
1467;SDS011;727;48.892;9.544;2023-01-19T13:24:28;8.38;;;6.93;;
1467;SDS011;727;48.892;9.544;2023-01-19T13:27:26;5.80;;;5.30;;
1467;SDS011;727;48.892;9.544;2023-01-19T13:29:53;8.90;;;6.53;;
1467;SDS011;727;48.892;9.544;2023-01-19T13:32:19;6.10;;;5.50;;
1467;SDS011;727;48.892;9.544;2023-01-19T13:34:50;7.60;;;6.82;;
1467;SDS011;727;48.892;9.544;2023-01-19T13:37:23;7.22;;;6.43;;
1467;SDS011;727;48.892;9.544;2023-01-19T13:39:54;8.07;;;6.47;;
1467;SDS011;727;48.892;9.544;2023-01-19T13:42:23;7.60;;;6.03;;
1467;SDS011;727;48.892;9.544;2023-01-19T13:44:55;9.45;;;6.63;;
1467;SDS011;727;48.892;9.544;2023-01-19T13:47:25;6.90;;;6.20;;
1467;SDS011;727;48.892;9.544;2023-01-19T13:49:57;7.85;;;6.78;;
1467;SDS011;727;48.892;9.544;2023-01-19T13:52:27;7.32;;;6.28;;
1467;SDS011;727;48.892;9.544;2023-01-19T13:54:55;6.05;;;5.45;;
1467;SDS011;727;48.892;9.544;2023-01-19T13:57:23;16.58;;;9.00;;
1467;SDS011;727;48.892;9.544;2023-01-19T14:00:05;8.10;;;6.05;;
1467;SDS011;727;48.892;9.544;2023-01-19T14:02:40;11.30;;;10.18;;
1467;SDS011;727;48.892;9.544;2023-01-19T14:05:19;7.45;;;6.55;;
1467;SDS011;727;48.892;9.544;2023-01-19T14:07:53;10.15;;;9.07;;
1467;SDS011;727;48.892;9.544;2023-01-19T14:10:25;13.73;;;12.20;;
1467;SDS011;727;48.892;9.544;2023-01-19T14:12:56;13.25;;;11.77;;
1467;SDS011;727;48.892;9.544;2023-01-19T14:15:24;14.52;;;12.90;;
1467;SDS011;727;48.892;9.544;2023-01-19T14:20:33;15.80;;;14.15;;
1467;SDS011;727;48.892;9.544;2023-01-19T14:23:02;13.07;;;10.82;;
1467;SDS011;727;48.892;9.544;2023-01-19T14:25:30;10.48;;;8.07;;
1467;SDS011;727;48.892;9.544;2023-01-19T14:30:54;11.98;;;8.57;;
1467;SDS011;727;48.892;9.544;2023-01-19T14:33:31;27.77;;;23.73;;
1467;SDS011;727;48.892;9.544;2023-01-19T14:36:06;16.85;;;14.00;;
1467;SDS011;727;48.892;9.544;2023-01-19T14:38:47;12.10;;;10.60;;
1467;SDS011;727;48.892;9.544;2023-01-19T14:41:21;16.60;;;12.93;;
1467;SDS011;727;48.892;9.544;2023-01-19T14:43:52;12.05;;;10.88;;
1467;SDS011;727;48.892;9.544;2023-01-19T14:46:20;12.88;;;10.43;;
1467;SDS011;727;48.892;9.544;2023-01-19T14:48:48;12.10;;;9.00;;
1467;SDS011;727;48.892;9.544;2023-01-19T14:51:17;11.73;;;9.80;;
1467;SDS011;727;48.892;9.544;2023-01-19T14:53:47;15.13;;;10.05;;
1467;SDS011;727;48.892;9.544;2023-01-19T14:56:22;15.68;;;9.50;;
1467;SDS011;727;48.892;9.544;2023-01-19T14:58:50;12.25;;;9.23;;
1467;SDS011;727;48.892;9.544;2023-01-19T15:01:17;12.88;;;8.82;;
1467;SDS011;727;48.892;9.544;2023-01-19T15:03:44;13.68;;;9.18;;
1467;SDS011;727;48.892;9.544;2023-01-19T15:06:11;10.43;;;8.80;;
1467;SDS011;727;48.892;9.544;2023-01-19T15:08:40;9.05;;;7.68;;
1467;SDS011;727;48.892;9.544;2023-01-19T15:11:09;9.50;;;8.60;;
1467;SDS011;727;48.892;9.544;2023-01-19T15:13:40;12.30;;;8.63;;
1467;SDS011;727;48.892;9.544;2023-01-19T15:16:09;10.05;;;8.85;;
1467;SDS011;727;48.892;9.544;2023-01-19T15:18:36;12.02;;;8.63;;
1467;SDS011;727;48.892;9.544;2023-01-19T15:21:03;11.57;;;9.98;;
1467;SDS011;727;48.892;9.544;2023-01-19T15:23:30;8.48;;;7.57;;
1467;SDS011;727;48.892;9.544;2023-01-19T15:25:57;7.75;;;7.05;;
1467;SDS011;727;48.892;9.544;2023-01-19T15:28:26;8.35;;;7.55;;
1467;SDS011;727;48.892;9.544;2023-01-19T15:30:54;9.48;;;7.95;;
1467;SDS011;727;48.892;9.544;2023-01-19T15:33:22;11.25;;;10.05;;
1467;SDS011;727;48.892;9.544;2023-01-19T15:35:50;10.82;;;9.38;;
1467;SDS011;727;48.892;9.544;2023-01-19T15:38:17;9.15;;;8.30;;
1467;SDS011;727;48.892;9.544;2023-01-19T15:40:45;11.90;;;8.40;;
1467;SDS011;727;48.892;9.544;2023-01-19T15:43:12;11.20;;;8.82;;